Time,TemperatureF,DewpointF,PressureIn,WindDirection,WindDirectionDegrees,WindSpeedMPH,WindSpeedGustMPH,Humidity,HourlyPrecipIn,Conditions,Clouds,dailyrainin,SolarRadiationWatts/m^2,SoftwareType,DateUTC
2013-03-24 00:02:00,56.8,52.0,29.67,NNW,348,1.0,2.0,84,0.00,,,0.00,0,weatherlink.com 1.10,2013-03-24 05:02:00,
2013-03-24 00:17:00,56.9,52.0,29.66,NNW,348,0.0,1.0,84,0.00,,,0.00,0,weatherlink.com 1.10,2013-03-24 05:17:00,
2013-03-24 00:35:00,56.5,52.0,29.64,East,99,0.0,2.0,84,0.00,,,0.00,0,weatherlink.com 1.10,2013-03-24 05:35:00,
2013-03-24 00:48:00,56.4,52.0,29.65,East,99,0.0,1.0,84,0.00,,,0.00,0,weatherlink.com 1.10,2013-03-24 05:48:00,
2013-03-24 01:03:00,56.6,52.0,29.66,East,100,0.0,0.0,84,0.00,,,0.00,0,weatherlink.com 1.10,2013-03-24 06:03:00,
2013-03-24 01:18:00,56.7,52.0,29.66,East,100,0.0,0.0,84,0.00,,,0.00,0,weatherlink.com 1.10,2013-03-24 06:18:00,
2013-03-24 01:33:00,56.7,52.0,29.66,East,101,0.0,0.0,84,0.00,,,0.00,0,weatherlink.com 1.10,2013-03-24 06:33:00,
2013-03-24 01:48:00,56.8,52.0,29.66,East,100,0.0,0.0,84,0.00,,,0.00,0,weatherlink.com 1.10,2013-03-24 06:48:00,
2013-03-24 02:03:00,56.9,52.0,29.66,East,100,0.0,0.0,84,0.00,,,0.00,0,weatherlink.com 1.10,2013-03-24 07:03:00,
2013-03-24 02:18:00,57.0,52.0,29.66,East,100,0.0,0.0,84,0.00,,,0.00,0,weatherlink.com 1.10,2013-03-24 07:18:00,
2013-03-24 02:33:00,57.1,52.0,29.66,East,100,0.0,1.0,84,0.00,,,0.00,0,weatherlink.com 1.10,2013-03-24 07:33:00,
2013-03-24 02:48:00,57.0,52.0,29.65,ESE,105,0.0,1.0,84,0.00,,,0.00,0,weatherlink.com 1.10,2013-03-24 07:48:00,
2013-03-24 03:03:00,56.8,52.0,29.64,ESE,105,0.0,4.0,84,0.00,,,0.00,0,weatherlink.com 1.10,2013-03-24 08:03:00,
2013-03-24 03:18:00,56.7,52.0,29.62,ESE,105,0.0,0.0,84,0.00,,,0.00,0,weatherlink.com 1.10,2013-03-24 08:18:00,
2013-03-24 03:33:00,56.7,52.0,29.72,WNW,303,1.0,6.0,84,0.00,,,0.00,0,weatherlink.com 1.10,2013-03-24 08:33:00,
2013-03-24 03:48:00,57.0,52.0,29.68,NNW,329,0.0,5.0,84,0.00,,,0.00,0,weatherlink.com 1.10,2013-03-24 08:48:00,
2013-03-24 04:03:00,56.2,52.0,29.66,NNW,329,2.0,2.0,84,0.00,,,0.00,0,weatherlink.com 1.10,2013-03-24 09:03:00,
2013-03-24 04:18:00,55.8,51.0,29.68,NNE,13,0.0,1.0,84,0.00,,,0.00,0,weatherlink.com 1.10,2013-03-24 09:18:00,
2013-03-24 04:33:00,55.8,51.0,29.68,NE,36,0.0,1.0,84,0.00,,,0.00,0,weatherlink.com 1.10,2013-03-24 09:33:00,
2013-03-24 04:48:00,55.8,51.0,29.68,West,264,0.0,4.0,84,0.00,,,0.00,0,weatherlink.com 1.10,2013-03-24 09:48:00,
2013-03-24 05:03:00,55.7,51.0,29.71,West,271,1.0,4.0,84,0.00,,,0.00,0,weatherlink.com 1.10,2013-03-24 10:03:00,
2013-03-24 05:18:00,55.7,51.0,29.72,NW,304,1.0,5.0,84,0.00,,,0.00,0,weatherlink.com 1.10,2013-03-24 10:18:00,
2013-03-24 05:33:00,55.8,51.0,29.72,North,4,0.0,4.0,84,0.00,,,0.00,0,weatherlink.com 1.10,2013-03-24 10:33:00,
2013-03-24 05:48:00,55.7,51.0,29.73,NNW,333,0.0,7.0,84,0.00,,,0.00,0,weatherlink.com 1.10,2013-03-24 10:48:00,
2013-03-24 06:03:00,55.5,51.0,29.75,North,4,2.0,6.0,84,0.00,,,0.00,0,weatherlink.com 1.10,2013-03-24 11:03:00,
2013-03-24 06:18:00,55.2,51.0,29.75,North,4,0.0,6.0,84,0.00,,,0.00,0,weatherlink.com 1.10,2013-03-24 11:18:00,
2013-03-24 06:33:00,54.9,50.0,29.77,WNW,297,1.0,5.0,84,0.00,,,0.00,0,weatherlink.com 1.10,2013-03-24 11:33:00,
2013-03-24 07:03:00,53.3,49.0,29.77,WNW,299,2.0,5.0,84,0.01,,,0.01,0,weatherlink.com 1.10,2013-03-24 12:03:00,
2013-03-24 07:18:00,53.2,49.0,29.77,West,275,0.0,2.0,84,0.01,,,0.01,0,weatherlink.com 1.10,2013-03-24 12:18:00,
2013-03-24 07:33:00,53.2,49.0,29.78,West,277,0.0,2.0,85,0.01,,,0.01,14,weatherlink.com 1.10,2013-03-24 12:33:00,
2013-03-24 07:48:00,53.3,49.0,29.79,West,260,2.0,6.0,85,0.00,,,0.01,14,weatherlink.com 1.10,2013-03-24 12:48:00,
2013-03-24 08:03:00,53.2,49.0,29.80,West,259,1.0,4.0,85,0.00,,,0.01,33,weatherlink.com 1.10,2013-03-24 13:03:00,
2013-03-24 08:18:00,52.9,48.0,29.80,West,275,5.0,9.0,84,0.00,,,0.01,21,weatherlink.com 1.10,2013-03-24 13:18:00,
2013-03-24 08:33:00,52.4,47.0,29.82,NW,313,2.0,10.0,83,0.00,,,0.01,42,weatherlink.com 1.10,2013-03-24 13:33:00,
2013-03-24 08:48:00,52.0,46.0,29.84,WNW,289,3.0,5.0,81,0.00,,,0.01,23,weatherlink.com 1.10,2013-03-24 13:48:00,
2013-03-24 09:03:00,51.8,46.0,29.84,North,4,3.0,14.0,80,0.00,,,0.01,54,weatherlink.com 1.10,2013-03-24 14:03:00,
2013-03-24 09:19:00,51.7,45.0,29.84,WNW,296,10.0,11.0,78,0.00,,,0.01,202,weatherlink.com 1.10,2013-03-24 14:19:00,
2013-03-24 09:34:00,51.9,45.0,29.85,NW,325,4.0,10.0,76,0.00,,,0.01,128,weatherlink.com 1.10,2013-03-24 14:34:00,
2013-03-24 09:49:00,52.1,44.0,29.85,WNW,303,1.0,8.0,75,0.00,,,0.01,343,weatherlink.com 1.10,2013-03-24 14:49:00,
2013-03-24 10:04:00,52.0,43.0,29.86,West,273,7.0,11.0,72,0.00,,,0.01,204,weatherlink.com 1.10,2013-03-24 15:04:00,
2013-03-24 10:19:00,52.9,42.0,29.87,North,4,6.0,10.0,67,0.00,,,0.01,631,weatherlink.com 1.10,2013-03-24 15:19:00,
2013-03-24 10:34:00,53.3,43.0,29.89,NW,308,5.0,9.0,67,0.00,,,0.01,726,weatherlink.com 1.10,2013-03-24 15:34:00,
2013-03-24 10:49:00,53.1,42.0,29.89,NW,320,4.0,13.0,67,0.00,,,0.01,784,weatherlink.com 1.10,2013-03-24 15:49:00,
2013-03-24 11:04:00,52.8,42.0,29.90,NNW,327,4.0,11.0,66,0.00,,,0.01,786,weatherlink.com 1.10,2013-03-24 16:04:00,
2013-03-24 11:19:00,52.9,40.0,29.90,WNW,296,2.0,11.0,61,0.00,,,0.01,816,weatherlink.com 1.10,2013-03-24 16:19:00,
2013-03-24 11:34:00,53.4,38.0,29.91,NW,306,6.0,14.0,57,0.00,,,0.01,842,weatherlink.com 1.10,2013-03-24 16:34:00,
2013-03-24 11:49:00,54.3,38.0,29.92,NW,311,4.0,11.0,55,0.00,,,0.01,870,weatherlink.com 1.10,2013-03-24 16:49:00,
2013-03-24 12:04:00,54.7,40.0,29.92,North,4,6.0,11.0,57,0.00,,,0.01,889,weatherlink.com 1.10,2013-03-24 17:04:00,
2013-03-24 12:19:00,54.2,37.0,29.92,WNW,288,5.0,13.0,52,0.00,,,0.01,988,weatherlink.com 1.10,2013-03-24 17:19:00,
2013-03-24 12:34:00,53.6,37.0,29.93,West,270,4.0,15.0,54,0.00,,,0.01,1002,weatherlink.com 1.10,2013-03-24 17:34:00,
2013-03-24 12:49:00,52.8,36.0,29.93,NW,319,4.0,10.0,54,0.00,,,0.01,1078,weatherlink.com 1.10,2013-03-24 17:49:00,
2013-03-24 13:04:00,54.4,35.0,29.93,WNW,298,4.0,13.0,48,0.00,,,0.01,956,weatherlink.com 1.10,2013-03-24 18:04:00,
2013-03-24 13:19:00,54.8,35.0,29.93,North,4,2.0,12.0,48,0.00,,,0.01,965,weatherlink.com 1.10,2013-03-24 18:19:00,
2013-03-24 13:34:00,54.7,34.0,29.92,WNW,287,4.0,10.0,46,0.00,,,0.01,937,weatherlink.com 1.10,2013-03-24 18:34:00,
2013-03-24 13:49:00,55.6,35.0,29.92,NW,315,4.0,13.0,47,0.00,,,0.01,919,weatherlink.com 1.10,2013-03-24 18:49:00,
2013-03-24 14:04:00,55.4,34.0,29.92,West,275,2.0,11.0,45,0.00,,,0.01,904,weatherlink.com 1.10,2013-03-24 19:04:00,
2013-03-24 14:19:00,56.6,36.0,29.91,North,4,1.0,9.0,46,0.00,,,0.01,888,weatherlink.com 1.10,2013-03-24 19:19:00,
2013-03-24 14:34:00,56.9,34.0,29.91,NW,325,4.0,10.0,43,0.00,,,0.01,867,weatherlink.com 1.10,2013-03-24 19:34:00,
2013-03-24 14:49:00,57.6,34.0,29.90,North,359,6.0,9.0,41,0.00,,,0.01,838,weatherlink.com 1.10,2013-03-24 19:49:00,
2013-03-24 15:04:00,57.0,34.0,29.91,NW,312,4.0,10.0,42,0.00,,,0.01,816,weatherlink.com 1.10,2013-03-24 20:04:00,
2013-03-24 15:19:00,57.4,34.0,29.91,North,4,5.0,10.0,41,0.00,,,0.01,782,weatherlink.com 1.10,2013-03-24 20:19:00,
2013-03-24 15:34:00,57.0,33.0,29.91,North,4,5.0,9.0,41,0.00,,,0.01,737,weatherlink.com 1.10,2013-03-24 20:34:00,
2013-03-24 15:50:00,56.2,32.0,29.91,West,279,5.0,9.0,40,0.00,,,0.01,696,weatherlink.com 1.10,2013-03-24 20:50:00,
2013-03-24 16:04:00,56.8,33.0,29.91,North,4,5.0,7.0,40,0.00,,,0.01,650,weatherlink.com 1.10,2013-03-24 21:04:00,
2013-03-24 16:19:00,56.2,33.0,29.91,NW,313,2.0,8.0,42,0.00,,,0.01,598,weatherlink.com 1.10,2013-03-24 21:19:00,
2013-03-24 16:34:00,55.9,33.0,29.91,NNE,15,4.0,7.0,43,0.00,,,0.01,550,weatherlink.com 1.10,2013-03-24 21:34:00,
2013-03-24 16:49:00,56.0,34.0,29.92,WSW,258,0.0,10.0,44,0.00,,,0.01,506,weatherlink.com 1.10,2013-03-24 21:49:00,
2013-03-24 17:04:00,56.2,34.0,29.92,NW,311,5.0,7.0,43,0.00,,,0.01,455,weatherlink.com 1.10,2013-03-24 22:04:00,
2013-03-24 17:19:00,55.0,33.0,29.93,NNE,31,1.0,11.0,44,0.00,,,0.01,388,weatherlink.com 1.10,2013-03-24 22:19:00,
2013-03-24 17:34:00,53.8,32.0,29.94,North,4,4.0,12.0,44,0.00,,,0.01,336,weatherlink.com 1.10,2013-03-24 22:34:00,
2013-03-24 17:50:00,53.4,31.0,29.94,WNW,288,5.0,10.0,43,0.00,,,0.01,276,weatherlink.com 1.10,2013-03-24 22:50:00,
2013-03-24 18:05:00,52.7,32.0,29.95,WNW,302,4.0,12.0,46,0.00,,,0.01,67,weatherlink.com 1.10,2013-03-24 23:05:00,
2013-03-24 18:20:00,52.1,32.0,29.95,WNW,288,4.0,7.0,46,0.00,,,0.01,42,weatherlink.com 1.10,2013-03-24 23:20:00,
2013-03-24 18:35:00,51.6,31.0,29.96,North,4,2.0,8.0,46,0.00,,,0.01,33,weatherlink.com 1.10,2013-03-24 23:35:00,
2013-03-24 18:50:00,50.8,32.0,29.96,NNW,346,5.0,8.0,49,0.00,,,0.01,26,weatherlink.com 1.10,2013-03-24 23:50:00,
2013-03-24 19:05:00,49.8,31.0,29.97,NNW,347,3.0,6.0,48,0.00,,,0.01,16,weatherlink.com 1.10,2013-03-25 00:05:00,
2013-03-24 19:20:00,48.8,31.0,29.98,NNW,340,2.0,8.0,50,0.00,,,0.01,7,weatherlink.com 1.10,2013-03-25 00:20:00,
2013-03-24 19:35:00,48.0,31.0,29.99,NNE,21,3.0,6.0,52,0.00,,,0.01,0,weatherlink.com 1.10,2013-03-25 00:35:00,
2013-03-24 19:50:00,47.3,31.0,30.00,North,4,1.0,5.0,54,0.00,,,0.01,0,weatherlink.com 1.10,2013-03-25 00:50:00,
2013-03-24 20:05:00,46.6,31.0,30.01,North,9,1.0,6.0,55,0.00,,,0.01,0,weatherlink.com 1.10,2013-03-25 01:05:00,
2013-03-24 20:20:00,45.8,31.0,30.02,NNE,13,4.0,5.0,57,0.00,,,0.01,0,weatherlink.com 1.10,2013-03-25 01:20:00,
2013-03-24 20:35:00,45.4,31.0,30.03,WNW,289,0.0,5.0,58,0.00,,,0.01,0,weatherlink.com 1.10,2013-03-25 01:35:00,
2013-03-24 20:50:00,44.7,31.0,30.03,NNE,20,1.0,5.0,59,0.00,,,0.01,0,weatherlink.com 1.10,2013-03-25 01:50:00,
2013-03-24 21:05:00,44.2,31.0,30.04,NNE,28,1.0,7.0,60,0.00,,,0.01,0,weatherlink.com 1.10,2013-03-25 02:05:00,
2013-03-24 21:20:00,43.6,31.0,30.04,NNE,26,1.0,5.0,62,0.00,,,0.01,0,weatherlink.com 1.10,2013-03-25 02:20:00,
2013-03-24 21:35:00,43.1,31.0,30.05,NNW,347,0.0,5.0,62,0.00,,,0.01,0,weatherlink.com 1.10,2013-03-25 02:35:00,
2013-03-24 21:50:00,42.5,31.0,30.06,NNW,330,0.0,4.0,63,0.00,,,0.01,0,weatherlink.com 1.10,2013-03-25 02:50:00,
2013-03-24 22:05:00,41.8,30.0,30.07,NNE,13,0.0,4.0,64,0.00,,,0.01,0,weatherlink.com 1.10,2013-03-25 03:05:00,
2013-03-24 22:20:00,41.2,30.0,30.07,North,9,0.0,2.0,65,0.00,,,0.01,0,weatherlink.com 1.10,2013-03-25 03:20:00,
2013-03-24 22:35:00,40.8,30.0,30.08,NNE,13,0.0,1.0,66,0.00,,,0.01,0,weatherlink.com 1.10,2013-03-25 03:35:00,
2013-03-24 22:50:00,40.2,30.0,30.09,North,9,0.0,0.0,67,0.00,,,0.01,0,weatherlink.com 1.10,2013-03-25 03:50:00,
2013-03-24 23:06:00,39.6,31.0,30.09,NNE,13,0.0,0.0,70,0.00,,,0.01,0,weatherlink.com 1.10,2013-03-25 04:06:00,
2013-03-24 23:21:00,38.7,30.0,30.09,NNE,13,0.0,0.0,71,0.00,,,0.01,0,weatherlink.com 1.10,2013-03-25 04:21:00,
2013-03-24 23:36:00,37.9,30.0,30.10,NNE,13,0.0,1.0,72,0.00,,,0.01,0,weatherlink.com 1.10,2013-03-25 04:36:00,
2013-03-24 23:51:00,37.3,29.0,30.10,NNE,13,0.0,0.0,73,0.00,,,0.01,0,weatherlink.com 1.10,2013-03-25 04:51:00,